Terminal Aerodrome Forecast
Issued by NWS

Home | Current Version | Previous Version | Text Only | Print | Product List | Glossary On
Versions: 1 2 3 4 5 6 7 8 9 10 11 12 13 14 15 16 17
000
FTUS43 KIND 180520
TAFLAF
TAF
KLAF 180520Z 1806/1906 27008KT P6SM -DZ OVC008
     FM181200 28006KT P6SM OVC005
     FM181400 28006KT P6SM BKN008
     FM181800 25006KT P6SM BKN010
     FM181900 25006KT P6SM SCT015
     FM190100 21004KT P6SM SCT140
      AMD LTD TO CLD VIS AND WIND TIL 181400=

USA.gov is the U.S. government's official web portal to all federal, state and local government web resources and services.